createdAt,value
2022-12-14T00:01:34.990Z,97194.56
2022-12-14T00:03:39.948Z,97198.81
2022-12-14T00:05:45.319Z,97197.97
2022-12-14T00:07:50.428Z,97197.91
2022-12-14T00:09:55.174Z,97206.41
2022-12-14T00:11:59.936Z,97202.13
2022-12-14T00:14:07.438Z,97200.44
2022-12-14T00:16:14.462Z,97193.56
2022-12-14T00:18:22.723Z,97188.44
2022-12-14T00:20:28.032Z,97186.75
2022-12-14T00:22:32.797Z,97189.31
2022-12-14T00:24:37.593Z,97184.19
2022-12-14T00:26:42.370Z,97172.31
2022-12-14T00:28:48.762Z,97173.22
2022-12-14T00:30:59.688Z,97182.63
2022-12-14T00:33:04.490Z,97178.44
2022-12-14T00:35:13.545Z,97174.16
2022-12-14T00:37:18.389Z,97175.81
2022-12-14T00:39:23.158Z,97180.06
2022-12-14T00:41:28.025Z,97169.03
2022-12-14T00:43:33.468Z,97171.56
2022-12-14T00:45:38.338Z,97166.47
2022-12-14T00:47:43.877Z,97165.66
2022-12-14T00:49:48.698Z,97167.44
2022-12-14T00:51:56.527Z,97162.41
2022-12-14T00:54:01.280Z,97155.66
2022-12-14T00:56:09.285Z,97150.53
2022-12-14T00:58:16.460Z,97138.59
2022-12-14T01:00:21.733Z,97141.97
2022-12-14T01:02:26.599Z,97151.31
2022-12-14T01:04:31.736Z,97157.25
2022-12-14T01:06:36.294Z,97153.03
2022-12-14T01:08:43.640Z,97154.78
2022-12-14T01:10:48.436Z,97157.31
2022-12-14T01:12:53.237Z,97152.19
2022-12-14T01:14:58.499Z,97165.69
2022-12-14T01:17:03.396Z,97165.63
2022-12-14T01:19:08.803Z,97179.13
2022-12-14T01:21:16.247Z,97187.59
2022-12-14T01:23:20.998Z,97179.09
2022-12-14T01:25:28.516Z,97176.59
2022-12-14T01:27:33.419Z,97187.69
2022-12-14T01:29:38.252Z,97182.59
2022-12-14T01:31:43.088Z,97175.72
2022-12-14T01:33:48.010Z,97168.91
2022-12-14T01:35:52.876Z,97168.88
2022-12-14T01:37:57.588Z,97163.81
2022-12-14T01:40:02.360Z,97159.56
2022-12-14T01:42:14.405Z,97167.16
2022-12-14T01:44:54.076Z,97155.22
2022-12-14T01:47:07.378Z,97143.28
2022-12-14T01:49:23.731Z,97134.88
2022-12-14T01:51:29.801Z,97129.91
2022-12-14T01:53:34.835Z,97130.75
2022-12-14T01:55:42.322Z,97121.47
2022-12-14T01:58:01.696Z,97122.38
2022-12-14T02:00:08.963Z,97124.13
2022-12-14T02:02:14.839Z,97122.41
2022-12-14T02:04:21.403Z,97125.75
2022-12-14T02:06:32.849Z,97126.63
2022-12-14T02:08:38.797Z,97127.47
2022-12-14T02:10:44.300Z,97117.28
2022-12-14T02:12:52.673Z,97126.66
2022-12-14T02:15:01.418Z,97119.03
2022-12-14T02:17:07.382Z,97119.84
2022-12-14T02:19:12.170Z,97119.06
2022-12-14T02:21:27.849Z,97120.78
2022-12-14T02:23:40.398Z,97123.38
2022-12-14T02:26:09.132Z,97125.09
2022-12-14T02:28:40.680Z,97121.69
2022-12-14T02:30:55.042Z,97124.19
2022-12-14T02:33:19.078Z,97124.22
2022-12-14T02:35:36.167Z,97126.75
2022-12-14T02:37:49.340Z,97124.13
2022-12-14T02:40:03.897Z,97113.81
2022-12-14T02:42:13.646Z,97109.50
2022-12-14T02:44:29.411Z,97110.28
2022-12-14T02:46:50.037Z,97091.50
2022-12-14T02:49:04.925Z,97082.16
2022-12-14T02:51:19.562Z,97076.25
2022-12-14T02:53:31.713Z,97082.16
2022-12-14T02:55:40.557Z,97068.53
2022-12-14T02:57:53.502Z,97073.63
2022-12-14T03:00:00.907Z,97070.28
2022-12-14T03:02:09.946Z,97061.00
2022-12-14T03:04:14.943Z,97056.78
2022-12-14T03:06:26.251Z,97053.38
2022-12-14T03:08:35.367Z,97049.19
2022-12-14T03:10:44.916Z,97045.78
2022-12-14T03:12:57.176Z,97048.41
2022-12-14T03:15:04.811Z,97040.72
2022-12-14T03:17:19.603Z,97044.13
2022-12-14T03:19:28.568Z,97039.16
2022-12-14T03:21:37.053Z,97037.44
2022-12-14T03:23:48.831Z,97039.19
2022-12-14T03:25:59.605Z,97035.81
2022-12-14T03:28:10.560Z,97037.47
2022-12-14T03:30:43.785Z,97036.56
2022-12-14T03:32:51.301Z,97038.13
2022-12-14T03:34:59.234Z,97032.03
2022-12-14T03:37:11.238Z,97026.09
2022-12-14T03:39:23.732Z,97023.47
2022-12-14T03:41:34.338Z,97014.94
2022-12-14T03:43:49.776Z,97012.31
2022-12-14T03:46:04.230Z,97011.41
2022-12-14T03:48:22.512Z,97014.75
2022-12-14T03:50:30.115Z,97001.13
2022-12-14T03:52:40.442Z,96996.00
2022-12-14T03:54:55.078Z,96994.25
2022-12-14T03:57:06.426Z,96991.75
2022-12-14T03:59:17.984Z,96988.44
2022-12-14T04:01:30.045Z,96988.44
2022-12-14T04:03:48.556Z,96983.44
2022-12-14T04:05:59.925Z,96980.09
2022-12-14T04:08:11.258Z,96980.00
2022-12-14T04:10:34.528Z,96996.19
2022-12-14T04:12:55.230Z,97001.31
2022-12-14T04:15:22.497Z,96997.06
2022-12-14T04:17:45.395Z,97000.50
2022-12-14T04:19:58.449Z,96988.75
2022-12-14T04:22:07.352Z,96977.75
2022-12-14T04:24:29.343Z,96984.59
2022-12-14T04:26:37.727Z,96981.13
2022-12-14T04:29:01.739Z,96983.63
2022-12-14T04:31:12.455Z,96985.34
2022-12-14T04:33:31.124Z,96981.94
2022-12-14T04:35:43.162Z,96986.13
2022-12-14T04:37:52.304Z,96978.44
2022-12-14T04:40:01.172Z,96969.88
2022-12-14T04:42:09.128Z,96962.16
2022-12-14T04:44:19.787Z,96958.72
2022-12-14T04:46:29.383Z,96950.28
2022-12-14T04:48:39.810Z,96948.69
2022-12-14T04:50:51.802Z,96942.72
2022-12-14T04:53:01.347Z,96945.31
2022-12-14T04:55:11.363Z,96940.22
2022-12-14T04:57:21.696Z,96936.84
2022-12-14T04:59:28.151Z,96931.81
2022-12-14T05:01:43.122Z,96930.94
2022-12-14T05:03:54.687Z,96927.59
2022-12-14T05:06:16.926Z,96920.91
2022-12-14T05:08:36.675Z,96918.41
2022-12-14T05:10:45.047Z,96921.78
2022-12-14T05:12:59.380Z,96920.03
2022-12-14T05:15:09.429Z,96919.16
2022-12-14T05:17:14.767Z,96922.53
2022-12-14T05:19:19.806Z,96911.44
2022-12-14T05:21:39.447Z,96904.56
2022-12-14T05:23:44.274Z,96896.22
2022-12-14T05:25:49.318Z,96898.78
2022-12-14T05:27:53.890Z,96886.13
2022-12-14T05:29:58.698Z,96896.31
2022-12-14T05:32:04.741Z,96889.50
2022-12-14T05:34:09.551Z,96879.25
2022-12-14T05:36:14.576Z,96879.28
2022-12-14T05:38:21.735Z,96871.59
2022-12-14T05:40:26.701Z,96869.91
2022-12-14T05:42:31.513Z,96867.31
2022-12-14T05:44:36.434Z,96859.66
2022-12-14T05:46:41.228Z,96859.59
2022-12-14T05:48:49.191Z,96860.34
2022-12-14T05:50:54.536Z,96866.13
2022-12-14T05:53:01.810Z,96865.16
2022-12-14T05:55:10.384Z,96860.03
2022-12-14T05:57:15.779Z,96861.72
2022-12-14T05:59:20.922Z,96863.34
2022-12-14T06:01:25.557Z,96867.75
2022-12-14T06:03:31.311Z,96872.94
2022-12-14T06:05:36.580Z,96869.53
2022-12-14T06:07:41.529Z,96869.53
2022-12-14T06:09:46.615Z,96862.66
2022-12-14T06:11:54.128Z,96859.22
2022-12-14T06:13:59.087Z,96858.44
2022-12-14T06:16:11.673Z,96858.34
2022-12-14T06:18:16.704Z,96859.06
2022-12-14T06:20:21.555Z,96856.41
2022-12-14T06:22:27.519Z,96859.78
2022-12-14T06:24:32.296Z,96852.09
2022-12-14T06:26:41.023Z,96847.81
2022-12-14T06:28:48.617Z,96844.28
2022-12-14T06:30:53.483Z,96830.75
2022-12-14T06:32:58.286Z,96831.56
2022-12-14T06:35:03.144Z,96823.91
2022-12-14T06:37:07.944Z,96826.47
2022-12-14T06:39:16.243Z,96838.34
2022-12-14T06:41:21.329Z,96837.44
2022-12-14T06:43:28.312Z,96840.84
2022-12-14T06:45:36.049Z,96835.81
2022-12-14T06:47:41.471Z,96838.28
2022-12-14T06:49:46.239Z,96852.59
2022-12-14T06:51:53.997Z,96852.53
2022-12-14T06:53:59.737Z,96843.22
2022-12-14T06:56:11.775Z,96831.34
2022-12-14T06:58:16.594Z,96831.34
2022-12-14T07:00:22.284Z,96828.78
2022-12-14T07:02:29.941Z,96830.41
2022-12-14T07:04:34.927Z,96833.78
2022-12-14T07:06:41.564Z,96841.34
2022-12-14T07:08:46.766Z,96831.06
2022-12-14T07:10:51.314Z,96830.19
2022-12-14T07:12:58.957Z,96824.25
2022-12-14T07:15:04.128Z,96809.75
2022-12-14T07:17:09.017Z,96794.31
2022-12-14T07:19:16.482Z,96786.59
2022-12-14T07:21:22.890Z,96772.94
2022-12-14T07:23:28.426Z,96789.03
2022-12-14T07:25:33.562Z,96781.41
2022-12-14T07:27:38.391Z,96784.22
2022-12-14T07:29:43.268Z,96790.22
2022-12-14T07:31:49.451Z,96790.16
2022-12-14T07:33:56.899Z,96786.66
2022-12-14T07:36:09.627Z,96795.88
2022-12-14T07:38:14.467Z,96795.97
2022-12-14T07:40:19.491Z,96807.84
2022-12-14T07:42:24.395Z,96821.31
2022-12-14T07:44:29.324Z,96822.09
2022-12-14T07:46:34.806Z,96816.03
2022-12-14T07:48:40.150Z,96813.47
2022-12-14T07:50:45.089Z,96810.09
2022-12-14T07:52:52.543Z,96805.06
2022-12-14T07:54:59.787Z,96804.16
2022-12-14T07:57:04.690Z,96798.16
2022-12-14T07:59:11.516Z,96794.66
2022-12-14T08:01:18.362Z,96792.22
2022-12-14T08:03:23.396Z,96793.06
2022-12-14T08:05:28.257Z,96783.69
2022-12-14T08:07:33.277Z,96784.56
2022-12-14T08:09:41.232Z,96793.94
2022-12-14T08:11:46.259Z,96795.59
2022-12-14T08:13:55.268Z,96797.31
2022-12-14T08:16:04.599Z,96786.09
2022-12-14T08:18:09.516Z,96791.19
2022-12-14T08:20:15.675Z,96785.97
2022-12-14T08:22:20.551Z,96781.84
2022-12-14T08:24:25.565Z,96765.72
2022-12-14T08:26:35.770Z,96763.91
2022-12-14T08:28:41.090Z,96757.22
2022-12-14T08:30:45.773Z,96753.75
2022-12-14T08:32:50.598Z,96750.34
2022-12-14T08:34:55.429Z,96740.88
2022-12-14T08:37:02.433Z,96725.41
2022-12-14T08:39:09.296Z,96718.56
2022-12-14T08:41:16.655Z,96706.63
2022-12-14T08:43:33.884Z,96705.72
2022-12-14T08:45:39.070Z,96703.22
2022-12-14T08:47:43.627Z,96694.84
2022-12-14T08:49:48.462Z,96686.47
2022-12-14T08:51:53.292Z,96690.69
2022-12-14T08:53:59.324Z,96688.13
2022-12-14T08:56:08.301Z,96683.78
2022-12-14T08:58:13.962Z,96693.84
2022-12-14T09:00:22.092Z,96692.88
2022-12-14T09:02:27.812Z,96683.47
2022-12-14T09:04:32.676Z,96686.06
2022-12-14T09:06:39.043Z,96681.00
2022-12-14T09:08:44.369Z,96686.72
2022-12-14T09:10:51.856Z,96696.03
2022-12-14T09:12:58.932Z,96716.56
2022-12-14T09:15:04.184Z,96698.00
2022-12-14T09:17:11.333Z,96688.59
2022-12-14T09:19:16.176Z,96678.31
2022-12-14T09:21:21.382Z,96696.81
2022-12-14T09:23:27.623Z,96698.44
2022-12-14T09:25:33.466Z,96691.63
2022-12-14T09:27:38.579Z,96678.19
2022-12-14T09:29:43.629Z,96662.09
2022-12-14T09:31:48.560Z,96653.72
2022-12-14T09:33:58.716Z,96663.19
2022-12-14T09:36:05.760Z,96658.84
2022-12-14T09:38:10.739Z,96658.75
2022-12-14T09:40:19.240Z,96655.44
2022-12-14T09:42:50.652Z,96667.34
2022-12-14T09:45:04.183Z,96679.13
2022-12-14T09:47:14.846Z,96680.63
2022-12-14T09:49:29.408Z,96681.53
2022-12-14T09:51:37.784Z,96680.94
2022-12-14T09:53:43.392Z,96682.72
2022-12-14T09:55:51.122Z,96680.25
2022-12-14T09:58:01.035Z,96674.25
2022-12-14T10:00:07.111Z,96685.38
2022-12-14T10:02:31.787Z,96690.41
2022-12-14T10:04:53.103Z,96697.06
2022-12-14T10:07:09.063Z,96708.81
2022-12-14T10:09:22.697Z,96702.75
2022-12-14T10:11:38.252Z,96694.31
2022-12-14T10:13:52.549Z,96710.88
2022-12-14T10:16:02.959Z,96712.00
2022-12-14T10:21:04.496Z,96700.00
2022-12-14T10:23:22.424Z,96701.56
2022-12-14T10:25:32.887Z,96689.53
2022-12-14T10:28:09.353Z,96681.03
2022-12-14T10:30:08.155Z,96671.69
2022-12-14T10:32:23.031Z,96666.53
2022-12-14T10:34:32.547Z,96662.22
2022-12-14T10:36:51.999Z,96654.50
2022-12-14T10:39:02.439Z,96648.47
2022-12-14T10:41:18.436Z,96653.56
2022-12-14T10:43:41.933Z,96646.69
2022-12-14T10:45:54.460Z,96667.38
2022-12-14T10:48:16.456Z,96651.94
2022-12-14T10:50:30.667Z,96627.28
2022-12-14T10:52:43.340Z,96622.13
2022-12-14T10:54:53.881Z,96611.94
2022-12-14T10:57:02.362Z,96623.88
2022-12-14T10:59:35.159Z,96617.91
2022-12-14T11:01:45.440Z,96610.22
2022-12-14T11:03:52.228Z,96609.38
2022-12-14T11:06:07.638Z,96616.03
2022-12-14T11:08:42.155Z,96622.16
2022-12-14T11:10:47.116Z,96618.78
2022-12-14T11:13:04.042Z,96605.03
2022-12-14T11:15:24.631Z,96605.94
2022-12-14T11:17:37.841Z,96607.50
2022-12-14T11:19:42.862Z,96612.38
2022-12-14T11:21:49.962Z,96614.13
2022-12-14T11:23:58.234Z,96609.84
2022-12-14T11:26:05.420Z,96602.19
2022-12-14T11:28:36.393Z,96599.53
2022-12-14T11:30:42.355Z,96590.94
2022-12-14T11:32:50.110Z,96596.06
2022-12-14T11:35:03.854Z,96579.88
2022-12-14T11:37:17.372Z,96579.03
2022-12-14T11:39:27.236Z,96588.25
2022-12-14T11:41:36.131Z,96577.16
2022-12-14T11:43:41.456Z,96587.25
2022-12-14T11:45:53.559Z,96584.75
2022-12-14T11:48:14.361Z,96587.97
2022-12-14T11:50:26.820Z,96591.13
2022-12-14T11:52:44.997Z,96585.84
2022-12-14T11:55:12.376Z,96588.38
2022-12-14T11:57:28.058Z,96584.78
2022-12-14T11:59:35.143Z,96589.88
2022-12-14T12:01:40.131Z,96592.50
2022-12-14T12:03:48.485Z,96587.34
2022-12-14T12:05:54.449Z,96586.31
2022-12-14T12:08:02.301Z,96582.84
2022-12-14T12:10:22.302Z,96583.69
2022-12-14T12:12:27.264Z,96590.28
2022-12-14T12:14:37.778Z,96585.41
2022-12-14T12:16:46.871Z,96587.41
2022-12-14T12:18:55.777Z,96587.59
2022-12-14T12:21:07.133Z,96583.44
2022-12-14T12:23:18.410Z,96579.06
2022-12-14T12:25:36.772Z,96591.22
2022-12-14T12:27:42.766Z,96590.56
2022-12-14T12:29:51.916Z,96588.06
2022-12-14T12:32:00.744Z,96582.88
2022-12-14T12:34:12.666Z,96570.75
2022-12-14T12:36:23.983Z,96577.44
2022-12-14T12:38:55.952Z,96571.66
2022-12-14T12:41:15.668Z,96572.75
2022-12-14T12:43:26.928Z,96576.28
2022-12-14T12:45:39.051Z,96585.78
2022-12-14T12:47:48.406Z,96587.50
2022-12-14T12:49:53.406Z,96583.44
2022-12-14T12:52:02.839Z,96574.03
2022-12-14T12:54:13.759Z,96569.78
2022-12-14T12:56:24.837Z,96561.84
2022-12-14T12:58:34.191Z,96567.66
2022-12-14T13:00:40.940Z,96569.44
2022-12-14T13:02:49.721Z,96564.47
2022-12-14T13:05:16.268Z,96578.09
2022-12-14T13:07:32.443Z,96574.63
2022-12-14T13:09:44.103Z,96582.06
2022-12-14T13:11:52.266Z,96584.69
2022-12-14T13:14:01.130Z,96573.50
2022-12-14T13:16:15.583Z,96566.66
2022-12-14T13:18:49.180Z,96562.25
2022-12-14T13:20:50.631Z,96563.94
2022-12-14T13:22:57.371Z,96579.31
2022-12-14T13:25:12.024Z,96585.44
2022-12-14T13:27:43.650Z,96578.91
2022-12-14T13:30:12.554Z,96572.09
2022-12-14T13:32:43.971Z,96572.13
2022-12-14T13:35:00.511Z,96582.38
2022-12-14T13:37:29.992Z,96576.28
2022-12-14T13:39:52.260Z,96576.38
2022-12-14T13:42:05.108Z,96577.94
2022-12-14T13:44:37.191Z,96587.31
2022-12-14T13:46:45.681Z,96588.00
2022-12-14T13:48:53.870Z,96581.22
2022-12-14T13:51:02.655Z,96591.44
2022-12-14T13:53:14.931Z,96593.84
2022-12-14T13:55:34.112Z,96596.31
2022-12-14T13:57:39.106Z,96598.19
2022-12-14T13:59:51.957Z,96599.03
2022-12-14T14:02:04.003Z,96607.56
2022-12-14T14:04:25.941Z,96614.28
2022-12-14T14:06:42.124Z,96607.47
2022-12-14T14:08:49.365Z,96610.97
2022-12-14T14:11:13.976Z,96599.84
2022-12-14T14:13:49.753Z,96610.91
2022-12-14T14:16:26.908Z,96615.34
2022-12-14T14:18:30.001Z,96615.38
2022-12-14T14:20:40.921Z,96607.88
2022-12-14T14:23:29.679Z,96614.69
2022-12-14T14:25:42.651Z,96617.03
2022-12-14T14:27:52.374Z,96613.41
2022-12-14T14:29:58.642Z,96606.63
2022-12-14T14:32:08.395Z,96609.19
2022-12-14T14:34:21.881Z,96616.03
2022-12-14T14:36:33.087Z,96610.91
2022-12-14T14:38:40.176Z,96609.19
2022-12-14T14:43:30.183Z,96610.19
2022-12-14T14:45:43.286Z,96606.03
2022-12-14T14:47:58.753Z,96621.31
2022-12-14T14:50:07.588Z,96613.81
2022-12-14T14:52:42.500Z,96612.06
2022-12-14T14:55:16.172Z,96613.91
2022-12-14T14:57:36.588Z,96632.53
2022-12-14T14:59:51.109Z,96623.97
2022-12-14T15:02:00.744Z,96625.09
2022-12-14T15:04:23.047Z,96622.53
2022-12-14T15:06:32.810Z,96617.50
2022-12-14T15:08:42.471Z,96626.72
2022-12-14T15:10:48.545Z,96634.19
2022-12-14T15:12:58.951Z,96639.16
2022-12-14T15:15:07.244Z,96642.44
2022-12-14T15:17:16.267Z,96648.38
2022-12-14T15:19:37.140Z,96658.69
2022-12-14T15:21:42.209Z,96660.47
2022-12-14T15:23:49.525Z,96669.66
2022-12-14T15:26:02.960Z,96664.56
2022-12-14T15:28:10.407Z,96670.47
2022-12-14T15:30:23.334Z,96665.28
2022-12-14T15:32:28.417Z,96661.09
2022-12-14T15:34:35.642Z,96656.91
2022-12-14T15:36:44.459Z,96655.97
2022-12-14T15:38:57.391Z,96664.31
2022-12-14T15:41:05.504Z,96665.91
2022-12-14T15:43:20.189Z,96665.81
2022-12-14T15:45:28.026Z,96672.53
2022-12-14T15:47:33.872Z,96665.81
2022-12-14T15:49:41.739Z,96657.34
2022-12-14T15:51:47.361Z,96671.84
2022-12-14T15:53:54.649Z,96683.75
2022-12-14T15:56:08.282Z,96684.69
2022-12-14T15:58:21.563Z,96685.50
2022-12-14T16:00:26.632Z,96689.66
2022-12-14T16:02:38.196Z,96688.06
2022-12-14T16:04:47.631Z,96702.50
2022-12-14T16:07:00.592Z,96702.72
2022-12-14T16:09:14.192Z,96705.38
2022-12-14T16:11:26.140Z,96704.53
2022-12-14T16:13:35.921Z,96711.66
2022-12-14T16:15:40.846Z,96708.00
2022-12-14T16:17:46.013Z,96705.34
2022-12-14T16:20:00.741Z,96712.06
2022-12-14T16:22:22.573Z,96711.09
2022-12-14T16:24:28.751Z,96717.00
2022-12-14T16:26:38.602Z,96713.56
2022-12-14T16:28:43.821Z,96714.28
2022-12-14T16:30:58.312Z,96708.13
2022-12-14T16:33:18.815Z,96709.03
2022-12-14T16:35:29.057Z,96717.69
2022-12-14T16:37:34.416Z,96724.47
2022-12-14T16:39:41.885Z,96729.59
2022-12-14T16:41:55.437Z,96720.03
2022-12-14T16:44:03.428Z,96720.63
2022-12-14T16:46:20.259Z,96719.69
2022-12-14T16:48:25.173Z,96720.53
2022-12-14T16:50:55.652Z,96728.16
2022-12-14T16:53:18.019Z,96742.00
2022-12-14T16:55:26.447Z,96741.09
2022-12-14T16:57:31.744Z,96734.16
2022-12-14T16:59:43.534Z,96736.69
2022-12-14T17:01:50.184Z,96738.53
2022-12-14T17:04:03.611Z,96737.69
2022-12-14T17:06:19.643Z,96736.88
2022-12-14T17:08:24.596Z,96734.25
2022-12-14T17:10:30.640Z,96742.59
2022-12-14T17:12:35.543Z,96748.41
2022-12-14T17:14:45.987Z,96746.63
2022-12-14T17:17:01.730Z,96740.53
2022-12-14T17:19:08.477Z,96753.22
2022-12-14T17:21:20.960Z,96754.81
2022-12-14T17:23:26.017Z,96759.91
2022-12-14T17:25:33.217Z,96781.53
2022-12-14T17:27:38.121Z,96783.28
2022-12-14T17:29:42.979Z,96780.63
2022-12-14T17:31:49.745Z,96778.81
2022-12-14T17:33:57.026Z,96775.38
2022-12-14T17:36:01.948Z,96773.69
2022-12-14T17:38:15.522Z,96774.44
2022-12-14T17:40:20.884Z,96780.47
2022-12-14T17:42:25.748Z,96783.78
2022-12-14T17:44:30.670Z,96791.75
2022-12-14T17:46:35.664Z,96797.84
2022-12-14T17:48:40.377Z,96802.97
2022-12-14T17:50:48.210Z,96811.69
2022-12-14T17:52:53.410Z,96817.03
2022-12-14T17:55:01.188Z,96812.97
2022-12-14T17:57:07.479Z,96820.97
2022-12-14T17:59:12.454Z,96823.59
2022-12-14T18:01:20.303Z,96836.47
2022-12-14T18:03:25.741Z,96843.31
2022-12-14T18:05:32.414Z,96843.34
2022-12-14T18:07:37.302Z,96844.84
2022-12-14T18:09:42.277Z,96838.13
2022-12-14T18:12:21.704Z,96843.03
2022-12-14T18:14:16.745Z,96848.00
2022-12-14T18:16:23.996Z,96852.19
2022-12-14T18:18:29.834Z,96843.41
2022-12-14T18:20:35.174Z,96838.97
2022-12-14T18:22:40.008Z,96842.41
2022-12-14T18:24:45.853Z,96834.78
2022-12-14T18:26:55.389Z,96841.41
2022-12-14T18:29:02.282Z,96827.06
2022-12-14T18:31:09.780Z,96825.31
2022-12-14T18:33:17.369Z,96829.47
2022-12-14T18:35:24.122Z,96838.09
2022-12-14T18:37:32.740Z,96844.03
2022-12-14T18:39:38.071Z,96842.25
2022-12-14T18:41:42.948Z,96848.13
2022-12-14T18:43:51.066Z,96841.13
2022-12-14T18:46:00.335Z,96851.22
2022-12-14T18:48:05.329Z,96850.28
2022-12-14T18:50:10.619Z,96849.78
2022-12-14T18:52:15.958Z,96847.97
2022-12-14T18:54:20.795Z,96847.03
2022-12-14T18:56:29.305Z,96853.00
2022-12-14T18:58:34.591Z,96841.84
2022-12-14T19:00:42.023Z,96854.66
2022-12-14T19:02:47.334Z,96852.09
2022-12-14T19:04:57.106Z,96855.44
2022-12-14T19:07:02.090Z,96857.16
2022-12-14T19:09:06.949Z,96862.19
2022-12-14T19:11:14.199Z,96870.75
2022-12-14T19:13:25.736Z,96875.56
2022-12-14T19:15:33.195Z,96880.91
2022-12-14T19:17:40.999Z,96884.47
2022-12-14T19:19:45.927Z,96885.38
2022-12-14T19:21:50.780Z,96885.31
2022-12-14T19:23:55.856Z,96882.53
2022-12-14T19:26:04.256Z,96883.28
2022-12-14T19:28:30.808Z,96886.63
2022-12-14T19:30:34.821Z,96889.03
2022-12-14T19:32:42.279Z,96883.09
2022-12-14T19:34:47.332Z,96888.22
2022-12-14T19:36:52.559Z,96899.41
2022-12-14T19:38:57.620Z,96899.00
2022-12-14T19:41:03.493Z,96901.16
2022-12-14T19:43:08.293Z,96904.81
2022-12-14T19:45:14.094Z,96906.72
2022-12-14T19:47:20.621Z,96907.00
2022-12-14T19:49:28.046Z,96907.19
2022-12-14T19:51:32.948Z,96910.59
2022-12-14T19:53:38.322Z,96910.88
2022-12-14T19:55:43.160Z,96915.19
2022-12-14T19:57:48.093Z,96911.97
2022-12-14T19:59:54.167Z,96920.56
2022-12-14T20:01:59.654Z,96909.53
2022-12-14T20:04:06.732Z,96912.97
2022-12-14T20:06:14.236Z,96923.31
2022-12-14T20:08:19.085Z,96924.09
2022-12-14T20:10:24.374Z,96932.59
2022-12-14T20:12:29.338Z,96934.31
2022-12-14T20:14:34.425Z,96937.91
2022-12-14T20:16:39.113Z,96938.69
2022-12-14T20:18:43.686Z,96936.19
2022-12-14T20:20:49.748Z,96940.47
2022-12-14T20:22:58.315Z,96950.66
2022-12-14T20:25:02.923Z,96961.78
2022-12-14T20:27:07.482Z,96965.13
2022-12-14T20:29:12.881Z,96968.44
2022-12-14T20:31:17.908Z,96972.59
2022-12-14T20:33:28.054Z,96968.28
2022-12-14T20:35:35.958Z,96971.56
2022-12-14T20:37:40.616Z,96975.72
2022-12-14T20:39:47.858Z,96978.19
2022-12-14T20:41:52.403Z,96973.84
2022-12-14T20:43:57.713Z,96981.50
2022-12-14T20:46:02.363Z,96976.41
2022-12-14T20:48:07.680Z,96968.06
2022-12-14T20:50:12.337Z,96978.19
2022-12-14T20:52:17.079Z,96984.03
2022-12-14T20:54:22.432Z,96980.75
2022-12-14T20:56:29.767Z,96977.41
2022-12-14T20:58:34.495Z,96986.78
2022-12-14T21:00:39.171Z,96993.41
2022-12-14T21:02:44.020Z,97000.81
2022-12-14T21:04:48.723Z,96999.72
2022-12-14T21:06:53.296Z,96999.56
2022-12-14T21:09:10.339Z,96999.41
2022-12-14T21:11:27.128Z,96998.63
2022-12-14T21:13:34.239Z,96997.84
2022-12-14T21:15:39.332Z,97003.75
2022-12-14T21:17:43.838Z,96997.03
2022-12-14T21:19:48.445Z,97013.19
2022-12-14T21:21:54.242Z,97010.84
2022-12-14T21:23:59.224Z,97014.41
2022-12-14T21:26:05.700Z,97019.50
2022-12-14T21:28:10.384Z,97025.50
2022-12-14T21:30:18.513Z,97023.56
2022-12-14T21:32:23.708Z,97020.84
2022-12-14T21:34:28.269Z,97020.75
2022-12-14T21:36:32.832Z,97018.13
2022-12-14T21:38:37.812Z,97013.75
2022-12-14T21:40:54.933Z,97029.78
2022-12-14T21:43:01.131Z,97024.69
2022-12-14T21:45:05.960Z,97033.31
2022-12-14T21:47:14.131Z,97030.06
2022-12-14T21:49:18.724Z,97031.13
2022-12-14T21:51:23.334Z,97024.50
2022-12-14T21:53:35.016Z,97028.78
2022-12-14T21:55:40.059Z,97036.28
2022-12-14T21:57:57.055Z,97022.69
2022-12-14T22:00:01.645Z,97016.78
2022-12-14T22:02:23.662Z,97011.63
2022-12-14T22:04:28.726Z,97019.09
2022-12-14T22:06:33.519Z,97012.16
2022-12-14T22:08:38.047Z,97012.84
2022-12-14T22:10:42.626Z,97020.41
2022-12-14T22:12:47.274Z,97023.81
2022-12-14T22:14:51.899Z,97029.72
2022-12-14T22:16:56.805Z,97027.19
2022-12-14T22:19:04.351Z,97028.97
2022-12-14T22:21:10.113Z,97030.03
2022-12-14T22:23:14.706Z,97034.34
2022-12-14T22:25:19.483Z,97044.59
2022-12-14T22:27:24.064Z,97032.97
2022-12-14T22:29:28.924Z,97027.84
2022-12-14T22:31:33.513Z,97027.97
2022-12-14T22:33:38.098Z,97030.56
2022-12-14T22:35:45.280Z,97039.06
2022-12-14T22:37:49.807Z,97027.19
2022-12-14T22:39:54.362Z,97032.13
2022-12-14T22:41:58.939Z,97039.63
2022-12-14T22:44:04.061Z,97033.63
2022-12-14T22:46:08.982Z,97035.13
2022-12-14T22:48:13.575Z,97033.47
2022-12-14T22:50:18.101Z,97042.00
2022-12-14T22:52:25.275Z,97040.41
2022-12-14T22:54:30.370Z,97037.91
2022-12-14T22:56:36.811Z,97039.78
2022-12-14T22:58:42.249Z,97046.72
2022-12-14T23:00:47.000Z,97051.75
2022-12-14T23:02:51.828Z,97044.94
2022-12-14T23:04:56.633Z,97050.75
2022-12-14T23:07:01.369Z,97046.31
2022-12-14T23:09:21.319Z,97057.34
2022-12-14T23:11:38.285Z,97064.25
2022-12-14T23:13:55.470Z,97054.13
2022-12-14T23:16:12.547Z,97061.00
2022-12-14T23:18:29.879Z,97070.44
2022-12-14T23:20:46.882Z,97060.91
2022-12-14T23:23:03.838Z,97059.06
2022-12-14T23:25:23.759Z,97052.19
2022-12-14T23:27:40.728Z,97054.75
2022-12-14T23:29:57.690Z,97051.41
2022-12-14T23:32:14.954Z,97056.53
2022-12-14T23:34:31.900Z,97052.06
2022-12-14T23:36:48.901Z,97048.63
2022-12-14T23:39:05.813Z,97050.53
2022-12-14T23:41:25.403Z,97055.78
2022-12-14T23:43:42.374Z,97057.81
2022-12-14T23:45:59.409Z,97058.16
2022-12-14T23:48:16.430Z,97071.03
2022-12-14T23:50:33.409Z,97075.34
2022-12-14T23:52:50.415Z,97085.63
2022-12-14T23:55:07.458Z,97082.25
2022-12-14T23:57:26.996Z,97094.03
2022-12-14T23:59:43.999Z,97088.00
